createdAt,value
2022-12-09T00:01:02.032Z,3.7
2022-12-09T00:02:09.924Z,3.5
2022-12-09T00:03:23.596Z,3.4
2022-12-09T00:04:28.369Z,3.1
2022-12-09T00:05:36.930Z,2.4
2022-12-09T00:06:46.586Z,2.7
2022-12-09T00:07:56.408Z,2.7
2022-12-09T00:09:06.258Z,3.3
2022-12-09T00:10:14.531Z,4
2022-12-09T00:11:23.275Z,3.5
2022-12-09T00:12:31.955Z,2.2
2022-12-09T00:13:39.769Z,3.1
2022-12-09T00:14:48.319Z,3.4
2022-12-09T00:15:58.010Z,3.1
2022-12-09T00:17:07.765Z,2.6
2022-12-09T00:18:17.385Z,3.4
2022-12-09T00:19:25.986Z,3.1
2022-12-09T00:20:34.799Z,2.8
2022-12-09T00:21:44.325Z,2.9
2022-12-09T00:22:53.117Z,3.1
2022-12-09T00:24:01.699Z,3.5
2022-12-09T00:25:11.366Z,2.7
2022-12-09T00:26:19.233Z,3.1
2022-12-09T00:27:28.842Z,2.7
2022-12-09T00:28:37.631Z,2.7
2022-12-09T00:29:47.367Z,2.9
2022-12-09T00:30:57.142Z,2.1
2022-12-09T00:32:04.551Z,2.5
2022-12-09T00:33:14.167Z,3.1
2022-12-09T00:34:24.194Z,2.4
2022-12-09T00:35:33.873Z,2.6
2022-12-09T00:36:43.326Z,2.6
2022-12-09T00:37:51.967Z,2.6
2022-12-09T00:38:59.854Z,2.7
2022-12-09T00:40:09.765Z,3
2022-12-09T00:41:18.255Z,2.4
2022-12-09T00:42:26.923Z,2.8
2022-12-09T00:43:36.842Z,2.6
2022-12-09T00:44:46.510Z,2.9
2022-12-09T00:45:55.287Z,3
2022-12-09T00:47:04.948Z,2.4
2022-12-09T00:48:14.429Z,2
2022-12-09T00:49:24.272Z,2.7
2022-12-09T00:50:31.870Z,2.6
2022-12-09T00:51:40.505Z,3.4
2022-12-09T00:52:50.242Z,2.4
2022-12-09T00:53:59.908Z,2.1
2022-12-09T00:55:09.905Z,2.6
2022-12-09T00:56:19.542Z,2.2
2022-12-09T00:57:27.238Z,2.6
2022-12-09T00:58:36.966Z,2.7
2022-12-09T00:59:44.681Z,2.3
2022-12-09T01:00:53.606Z,1.7
2022-12-09T01:02:03.141Z,2.2
2022-12-09T01:03:11.065Z,2.2
2022-12-09T01:04:20.662Z,2
2022-12-09T01:05:29.092Z,2.2
2022-12-09T01:06:38.988Z,2.2
2022-12-09T01:07:47.730Z,2.5
2022-12-09T01:08:56.459Z,1.8
2022-12-09T01:10:05.233Z,2.4
2022-12-09T01:11:14.531Z,2.3
2022-12-09T01:12:23.231Z,2.6
2022-12-09T01:13:33.227Z,2.9
2022-12-09T01:14:41.862Z,2.1
2022-12-09T01:15:49.357Z,2.3
2022-12-09T01:16:59.326Z,1.9
2022-12-09T01:18:07.941Z,2.5
2022-12-09T01:19:16.641Z,2.6
2022-12-09T01:20:26.285Z,2.3
2022-12-09T01:21:34.969Z,2.6
2022-12-09T01:22:44.609Z,2.4
2022-12-09T01:23:54.269Z,2.2
2022-12-09T01:25:04.079Z,2.5
2022-12-09T01:26:12.753Z,1.9
2022-12-09T01:27:20.320Z,1.7
2022-12-09T01:28:29.964Z,2.5
2022-12-09T01:29:39.648Z,1.9
2022-12-09T01:30:48.440Z,1.8
2022-12-09T01:31:58.070Z,2.1
2022-12-09T01:33:06.141Z,2.2
2022-12-09T01:34:15.603Z,1.8
2022-12-09T01:35:25.129Z,2.7
2022-12-09T01:36:34.951Z,2.6
2022-12-09T01:37:44.536Z,2.2
2022-12-09T01:38:53.309Z,2
2022-12-09T01:40:01.961Z,2.2
2022-12-09T01:41:11.702Z,2.8
2022-12-09T01:42:21.567Z,2.6
2022-12-09T01:43:31.270Z,1.9
2022-12-09T01:44:40.967Z,1.6
2022-12-09T01:45:50.650Z,2.2
2022-12-09T01:47:00.391Z,2.1
2022-12-09T01:48:10.122Z,2
2022-12-09T01:49:19.718Z,2
2022-12-09T01:50:29.461Z,2.6
2022-12-09T01:51:39.052Z,2.3
2022-12-09T01:52:48.772Z,2.2
2022-12-09T01:53:57.419Z,2
2022-12-09T01:55:05.409Z,2.1
2022-12-09T01:56:15.047Z,2.6
2022-12-09T01:57:23.551Z,2.3
2022-12-09T01:58:33.245Z,2.1
2022-12-09T01:59:43.002Z,2
2022-12-09T02:00:50.972Z,1.6
2022-12-09T02:02:00.284Z,1.9
2022-12-09T02:03:10.073Z,2.6
2022-12-09T02:04:17.910Z,2.1
2022-12-09T02:05:27.566Z,2.6
2022-12-09T02:06:36.430Z,2.3
2022-12-09T02:07:45.139Z,2.2
2022-12-09T02:08:54.964Z,1.8
2022-12-09T02:10:02.485Z,2
2022-12-09T02:11:11.990Z,2
2022-12-09T02:12:20.615Z,2.8
2022-12-09T02:13:28.589Z,2.3
2022-12-09T02:14:38.219Z,2.4
2022-12-09T02:15:46.939Z,2.4
2022-12-09T02:16:55.568Z,2.1
2022-12-09T02:18:05.249Z,2.4
2022-12-09T02:19:12.698Z,2.3
2022-12-09T02:20:22.761Z,2
2022-12-09T02:21:31.141Z,2
2022-12-09T02:22:39.019Z,2.3
2022-12-09T02:23:48.424Z,1.7
2022-12-09T02:24:56.147Z,2.1
2022-12-09T02:26:04.790Z,2.3
2022-12-09T02:27:14.619Z,2.3
2022-12-09T02:28:24.599Z,2
2022-12-09T02:29:34.029Z,2.5
2022-12-09T02:30:43.721Z,2.3
2022-12-09T02:31:52.526Z,1.9
2022-12-09T02:33:02.184Z,1.8
2022-12-09T02:34:11.073Z,1.8
2022-12-09T02:35:19.526Z,1.8
2022-12-09T02:36:29.191Z,1.9
2022-12-09T02:37:37.862Z,2.5
2022-12-09T02:38:47.566Z,2.3
2022-12-09T02:39:57.251Z,2.1
2022-12-09T02:41:04.937Z,1.9
2022-12-09T02:42:14.603Z,1.7
2022-12-09T02:43:24.283Z,2.3
2022-12-09T02:44:32.633Z,1.5
2022-12-09T02:45:42.411Z,1.9
2022-12-09T02:46:51.145Z,2.2
2022-12-09T02:48:01.064Z,1.9
2022-12-09T02:49:09.370Z,2.1
2022-12-09T02:50:18.047Z,1.9
2022-12-09T02:51:27.900Z,2.2
2022-12-09T02:52:35.606Z,2.1
2022-12-09T02:53:45.103Z,1.7
2022-12-09T02:54:54.839Z,1.7
2022-12-09T02:56:02.474Z,2.5
2022-12-09T02:57:12.288Z,2.6
2022-12-09T02:58:21.883Z,2.3
2022-12-09T02:59:29.620Z,1.9
2022-12-09T03:00:39.435Z,2.3
2022-12-09T03:01:48.280Z,2.2
2022-12-09T03:02:57.842Z,2
2022-12-09T03:04:07.482Z,2.6
2022-12-09T03:05:17.032Z,2
2022-12-09T03:06:26.705Z,2.6
2022-12-09T03:07:36.527Z,2.1
2022-12-09T03:08:45.102Z,2.4
2022-12-09T03:09:54.779Z,2
2022-12-09T03:11:04.587Z,2.2
2022-12-09T03:12:14.129Z,1.8
2022-12-09T03:13:23.871Z,1.9
2022-12-09T03:14:31.513Z,1.8
2022-12-09T03:15:41.185Z,1.8
2022-12-09T03:16:50.875Z,2.2
2022-12-09T03:17:59.825Z,1.5
2022-12-09T03:19:09.306Z,2.1
2022-12-09T03:20:18.916Z,2
2022-12-09T03:21:28.557Z,2.4
2022-12-09T03:22:38.235Z,1.8
2022-12-09T03:23:46.145Z,1.8
2022-12-09T03:24:54.595Z,2.7
2022-12-09T03:26:04.605Z,1.8
2022-12-09T03:27:12.149Z,2.2
2022-12-09T03:28:21.863Z,1.8
2022-12-09T03:29:31.564Z,1.9
2022-12-09T03:30:41.035Z,2.2
2022-12-09T03:31:50.879Z,1.4
2022-12-09T03:32:58.757Z,2
2022-12-09T03:34:07.091Z,1.7
2022-12-09T03:35:16.769Z,2.6
2022-12-09T03:36:24.466Z,1.8
2022-12-09T03:37:34.395Z,2.6
2022-12-09T03:38:42.817Z,2.5
2022-12-09T03:39:52.500Z,1.7
2022-12-09T03:41:02.292Z,1.8
2022-12-09T03:42:11.981Z,2
2022-12-09T03:43:20.924Z,1.9
2022-12-09T03:44:30.623Z,1.6
2022-12-09T03:45:39.408Z,1.5
2022-12-09T03:46:49.167Z,2.2
2022-12-09T03:47:57.886Z,1.7
2022-12-09T03:49:05.367Z,1.9
2022-12-09T03:50:15.036Z,2.1
2022-12-09T03:51:22.615Z,2
2022-12-09T03:52:32.158Z,1.9
2022-12-09T03:53:41.821Z,1.5
2022-12-09T03:54:50.772Z,1.7
2022-12-09T03:56:00.575Z,2.2
2022-12-09T03:57:11.363Z,1.7
2022-12-09T03:58:19.878Z,2.1
2022-12-09T03:59:29.517Z,2.2
2022-12-09T04:00:38.219Z,1.8
2022-12-09T04:01:47.930Z,2
2022-12-09T04:02:56.749Z,2.2
2022-12-09T04:04:05.441Z,2.1
2022-12-09T04:05:15.016Z,2
2022-12-09T04:06:23.760Z,2.4
2022-12-09T04:07:32.301Z,2.4
2022-12-09T04:08:42.071Z,1.8
2022-12-09T04:09:50.819Z,1.9
2022-12-09T04:11:00.387Z,2.1
2022-12-09T04:12:08.247Z,2
2022-12-09T04:13:18.055Z,2.3
2022-12-09T04:14:27.637Z,2
2022-12-09T04:15:35.320Z,1.4
2022-12-09T04:16:46.093Z,1.5
2022-12-09T04:17:54.835Z,1.7
2022-12-09T04:19:02.283Z,2.1
2022-12-09T04:20:12.078Z,2.3
2022-12-09T04:21:21.447Z,2
2022-12-09T04:22:31.292Z,2
2022-12-09T04:23:43.138Z,2
2022-12-09T04:24:50.454Z,1.8
2022-12-09T04:26:00.136Z,2.3
2022-12-09T04:27:09.932Z,1.7
2022-12-09T04:28:17.913Z,2.3
2022-12-09T04:29:27.498Z,2.4
2022-12-09T04:30:36.926Z,2.2
2022-12-09T04:31:45.745Z,1.9
2022-12-09T04:32:55.254Z,2.3
2022-12-09T04:34:09.076Z,1.7
2022-12-09T04:35:15.606Z,1.8
2022-12-09T04:36:24.390Z,1.8
2022-12-09T04:37:32.134Z,2
2022-12-09T04:38:41.595Z,2.2
2022-12-09T04:39:49.316Z,1.8
2022-12-09T04:40:58.964Z,2
2022-12-09T04:42:08.761Z,2.1
2022-12-09T04:43:16.457Z,2.2
2022-12-09T04:44:26.081Z,1.7
2022-12-09T04:45:35.846Z,2.3
2022-12-09T04:46:45.758Z,1.7
2022-12-09T04:47:55.198Z,2.4
2022-12-09T04:49:03.149Z,2.2
2022-12-09T04:50:11.897Z,2.1
2022-12-09T04:51:21.227Z,2.2
2022-12-09T04:52:30.185Z,2.1
2022-12-09T04:53:40.040Z,1.9
2022-12-09T04:54:48.667Z,1.5
2022-12-09T04:55:55.984Z,1.7
2022-12-09T04:57:05.895Z,2.4
2022-12-09T04:58:13.705Z,2.1
2022-12-09T04:59:22.456Z,2.2
2022-12-09T05:00:32.203Z,1.7
2022-12-09T05:01:41.756Z,1.8
2022-12-09T05:02:51.476Z,2.1
2022-12-09T05:04:01.298Z,2.2
2022-12-09T05:05:09.976Z,1.9
2022-12-09T05:06:19.827Z,2.3
2022-12-09T05:07:28.338Z,2.2
2022-12-09T05:08:37.073Z,1.9
2022-12-09T05:09:45.812Z,2.3
2022-12-09T05:10:53.437Z,1.2
2022-12-09T05:12:03.014Z,2.1
2022-12-09T05:13:11.888Z,1.8
2022-12-09T05:14:20.471Z,1.8
2022-12-09T05:15:30.386Z,2.5
2022-12-09T05:16:37.965Z,2
2022-12-09T05:17:46.811Z,1.7
2022-12-09T05:18:56.325Z,2.2
2022-12-09T05:20:05.126Z,1.9
2022-12-09T05:21:14.505Z,2.4
2022-12-09T05:22:23.374Z,1.5
2022-12-09T05:23:31.914Z,2.2
2022-12-09T05:24:41.703Z,2.2
2022-12-09T05:25:51.332Z,1.8
2022-12-09T05:26:59.966Z,1.9
2022-12-09T05:28:10.016Z,2.2
2022-12-09T05:29:22.700Z,1.8
2022-12-09T05:30:30.079Z,1.8
2022-12-09T05:31:39.795Z,2
2022-12-09T05:32:47.483Z,2.1
2022-12-09T05:33:57.286Z,2.1
2022-12-09T05:35:05.121Z,1.9
2022-12-09T05:36:14.606Z,1.5
2022-12-09T05:37:24.655Z,2.1
2022-12-09T05:38:34.413Z,2.2
2022-12-09T05:39:44.226Z,1.9
2022-12-09T05:40:52.621Z,2.1
2022-12-09T05:42:00.584Z,2.5
2022-12-09T05:43:09.914Z,1.9
2022-12-09T05:44:17.700Z,2.3
2022-12-09T05:45:26.840Z,2
2022-12-09T05:46:36.259Z,2.3
2022-12-09T05:47:44.934Z,2.7
2022-12-09T05:48:54.878Z,1.6
2022-12-09T05:50:07.777Z,1.5
2022-12-09T05:51:14.204Z,2.1
2022-12-09T05:52:23.908Z,2
2022-12-09T05:53:31.512Z,2.8
2022-12-09T05:54:40.056Z,1.8
2022-12-09T05:55:49.735Z,1.9
2022-12-09T05:56:58.796Z,1.8
2022-12-09T05:58:08.121Z,2.1
2022-12-09T05:59:16.967Z,2.1
2022-12-09T06:00:26.798Z,2.1
2022-12-09T06:01:35.355Z,1.9
2022-12-09T06:02:45.279Z,2.3
2022-12-09T06:03:54.730Z,2.8
2022-12-09T06:05:03.470Z,2.4
2022-12-09T06:06:12.456Z,1.9
2022-12-09T06:07:21.688Z,2.1
2022-12-09T06:08:29.739Z,2.3
2022-12-09T06:09:38.972Z,2.4
2022-12-09T06:10:48.125Z,1.9
2022-12-09T06:11:57.552Z,1.9
2022-12-09T06:13:07.249Z,2.9
2022-12-09T06:14:15.693Z,2
2022-12-09T06:15:29.782Z,2.1
2022-12-09T06:16:35.119Z,1.8
2022-12-09T06:17:43.993Z,2.1
2022-12-09T06:18:53.557Z,1.9
2022-12-09T06:20:02.424Z,2.1
2022-12-09T06:21:12.150Z,2.4
2022-12-09T06:22:21.872Z,2.6
2022-12-09T06:23:29.328Z,2.4
2022-12-09T06:24:38.889Z,2.7
2022-12-09T06:25:49.081Z,1.9
2022-12-09T06:26:56.383Z,2.4
2022-12-09T06:28:06.208Z,2.5
2022-12-09T06:29:14.677Z,2.2
2022-12-09T06:30:22.376Z,2
2022-12-09T06:31:32.532Z,2.4
2022-12-09T06:32:40.162Z,2.3
2022-12-09T06:33:58.292Z,2.4
2022-12-09T06:35:00.453Z,2.1
2022-12-09T06:36:10.200Z,2.1
2022-12-09T06:37:19.603Z,2.4
2022-12-09T06:38:29.495Z,1.9
2022-12-09T06:39:39.080Z,2.4
2022-12-09T06:40:48.697Z,2
2022-12-09T06:41:56.564Z,2.4
2022-12-09T06:43:06.228Z,2.1
2022-12-09T06:44:21.609Z,2.1
2022-12-09T06:45:26.422Z,2.5
2022-12-09T06:46:36.256Z,2.2
2022-12-09T06:47:45.887Z,2
2022-12-09T06:48:53.854Z,2.6
2022-12-09T06:50:06.857Z,2
2022-12-09T06:51:12.876Z,2.3
2022-12-09T06:52:22.868Z,2.2
2022-12-09T06:53:32.374Z,1.6
2022-12-09T06:54:40.149Z,1.9
2022-12-09T06:55:49.645Z,2
2022-12-09T06:56:59.548Z,1.5
2022-12-09T06:58:07.064Z,1.6
2022-12-09T06:59:16.818Z,1.5
2022-12-09T07:00:25.867Z,1.7
2022-12-09T07:01:35.144Z,1.9
2022-12-09T07:02:45.212Z,2.7
2022-12-09T07:03:53.659Z,2
2022-12-09T07:05:03.896Z,2.2
2022-12-09T07:06:11.966Z,1.8
2022-12-09T07:07:20.996Z,2.1
2022-12-09T07:08:30.776Z,2.2
2022-12-09T07:09:39.171Z,2.1
2022-12-09T07:10:53.147Z,2.1
2022-12-09T07:11:58.701Z,1.9
2022-12-09T07:13:06.058Z,2
2022-12-09T07:14:16.142Z,2
2022-12-09T07:15:24.704Z,1.4
2022-12-09T07:16:32.175Z,1.8
2022-12-09T07:17:42.166Z,1.7
2022-12-09T07:18:49.672Z,2
2022-12-09T07:20:05.094Z,1.8
2022-12-09T07:21:09.275Z,1.9
2022-12-09T07:22:17.921Z,2
2022-12-09T07:23:27.244Z,1.8
2022-12-09T07:24:37.082Z,1.7
2022-12-09T07:25:45.899Z,1.6
2022-12-09T07:26:55.683Z,2.2
2022-12-09T07:28:03.081Z,1.8
2022-12-09T07:29:11.762Z,1.4
2022-12-09T07:30:21.425Z,2.1
2022-12-09T07:31:29.497Z,2
2022-12-09T07:32:37.969Z,1.8
2022-12-09T07:33:47.581Z,1.8
2022-12-09T07:34:56.252Z,1.9
2022-12-09T07:36:05.750Z,1.7
2022-12-09T07:37:13.243Z,1.9
2022-12-09T07:38:23.048Z,1.5
2022-12-09T07:39:32.469Z,1.8
2022-12-09T07:40:41.186Z,2
2022-12-09T07:41:50.936Z,2
2022-12-09T07:43:00.757Z,1.7
2022-12-09T07:44:10.530Z,2
2022-12-09T07:45:20.233Z,1.9
2022-12-09T07:46:29.036Z,1.9
2022-12-09T07:47:37.555Z,1.7
2022-12-09T07:48:47.207Z,2
2022-12-09T07:49:57.686Z,2.4
2022-12-09T07:51:06.686Z,1.6
2022-12-09T07:52:15.195Z,1.8
2022-12-09T07:53:22.968Z,1.8
2022-12-09T07:54:31.496Z,2
2022-12-09T07:55:40.612Z,1.5
2022-12-09T07:56:50.014Z,1.9
2022-12-09T07:57:57.819Z,1.8
2022-12-09T07:59:07.268Z,1.4
2022-12-09T08:00:17.152Z,1.5
2022-12-09T08:01:26.039Z,1.6
2022-12-09T08:02:35.388Z,1.9
2022-12-09T08:03:43.487Z,2
2022-12-09T08:04:52.927Z,2
2022-12-09T08:06:02.838Z,2
2022-12-09T08:07:13.616Z,2.1
2022-12-09T08:08:22.171Z,2.2
2022-12-09T08:09:32.124Z,2
2022-12-09T08:10:39.356Z,2.3
2022-12-09T08:11:49.458Z,2.3
2022-12-09T08:12:58.750Z,2.2
2022-12-09T08:14:12.114Z,1.7
2022-12-09T08:15:18.962Z,2.3
2022-12-09T08:16:29.156Z,2.4
2022-12-09T08:17:38.813Z,2.5
2022-12-09T08:18:47.165Z,2.3
2022-12-09T08:19:55.870Z,2.7
2022-12-09T08:21:05.511Z,2.6
2022-12-09T08:22:14.149Z,2.6
2022-12-09T08:23:24.144Z,2
2022-12-09T08:24:33.573Z,2.9
2022-12-09T08:25:41.759Z,3
2022-12-09T08:26:50.938Z,3
2022-12-09T08:28:00.596Z,2.7
2022-12-09T08:29:09.231Z,2.6
2022-12-09T08:30:19.024Z,2.8
2022-12-09T08:31:28.842Z,3.7
2022-12-09T08:32:37.218Z,2.9
2022-12-09T08:33:47.307Z,2.3
2022-12-09T08:34:55.818Z,2.8
2022-12-09T08:36:05.233Z,2.4
2022-12-09T08:37:15.188Z,3.2
2022-12-09T08:38:24.672Z,2.8
2022-12-09T08:39:34.398Z,2.9
2022-12-09T08:40:43.079Z,3
2022-12-09T08:41:50.696Z,2.4
2022-12-09T08:43:00.613Z,2.4
2022-12-09T08:44:08.218Z,2.8
2022-12-09T08:45:18.101Z,3
2022-12-09T08:46:27.770Z,2.6
2022-12-09T08:47:36.258Z,2.2
2022-12-09T08:48:46.391Z,2.5
2022-12-09T08:49:54.904Z,2.8
2022-12-09T08:51:02.537Z,2.7
2022-12-09T08:52:12.177Z,2.4
2022-12-09T08:53:20.998Z,2.3
2022-12-09T08:54:30.789Z,2
2022-12-09T08:55:40.281Z,2.2
2022-12-09T08:56:48.399Z,3.2
2022-12-09T08:57:58.022Z,2.9
2022-12-09T08:59:07.571Z,3.3
2022-12-09T09:00:16.977Z,2.7
2022-12-09T09:01:25.921Z,3.1
2022-12-09T09:02:34.421Z,2.8
2022-12-09T09:03:44.298Z,2.4
2022-12-09T09:04:52.964Z,2.3
2022-12-09T09:06:07.358Z,2.9
2022-12-09T09:07:13.348Z,2.8
2022-12-09T09:08:22.945Z,3.1
2022-12-09T09:09:31.692Z,3.2
2022-12-09T09:10:41.566Z,3.8
2022-12-09T09:11:50.298Z,2.6
2022-12-09T09:12:58.928Z,3.7
2022-12-09T09:14:08.479Z,4
2022-12-09T09:15:16.343Z,4.6
2022-12-09T09:16:27.273Z,4.1
2022-12-09T09:17:35.755Z,3.7
2022-12-09T09:18:44.680Z,4.1
2022-12-09T09:19:54.275Z,4.3
2022-12-09T09:21:02.631Z,3.7
2022-12-09T09:22:11.216Z,3.8
2022-12-09T09:23:20.998Z,3.2
2022-12-09T09:24:28.846Z,3.6
2022-12-09T09:25:38.261Z,3.5
2022-12-09T09:26:48.411Z,3.4
2022-12-09T09:27:56.666Z,4.2
2022-12-09T09:29:06.580Z,3.8
2022-12-09T09:30:16.313Z,4.4
2022-12-09T09:31:25.909Z,4.3
2022-12-09T09:32:35.425Z,4.4
2022-12-09T09:33:44.531Z,4
2022-12-09T09:34:54.366Z,3.7
2022-12-09T09:36:06.970Z,4
2022-12-09T09:37:11.429Z,3.7
2022-12-09T09:38:21.220Z,4
2022-12-09T09:39:30.694Z,2.6
2022-12-09T09:40:40.713Z,3.7
2022-12-09T09:41:50.125Z,3.4
2022-12-09T09:42:57.975Z,3.7
2022-12-09T09:44:07.711Z,3.5
2022-12-09T09:45:16.003Z,3.6
2022-12-09T09:46:24.204Z,3.8
2022-12-09T09:47:37.992Z,4.1
2022-12-09T09:48:44.149Z,3.4
2022-12-09T09:49:52.804Z,4.2
2022-12-09T09:51:02.419Z,3.1
2022-12-09T09:52:12.096Z,3.1
2022-12-09T09:53:22.126Z,3.5
2022-12-09T09:54:30.504Z,3.9
2022-12-09T09:55:40.257Z,3.4
2022-12-09T09:56:49.848Z,2.7
2022-12-09T09:57:59.564Z,4.1
2022-12-09T09:59:09.628Z,3.3
2022-12-09T10:00:19.326Z,3.4
2022-12-09T10:01:27.780Z,3.6
2022-12-09T10:02:37.536Z,3.4
2022-12-09T10:03:45.921Z,3.3
2022-12-09T10:04:56.371Z,3.6
2022-12-09T10:06:05.949Z,3.1
2022-12-09T10:07:15.348Z,2.7
2022-12-09T10:08:25.084Z,4
2022-12-09T10:09:33.108Z,3
2022-12-09T10:10:41.556Z,3.1
2022-12-09T10:11:51.638Z,3.4
2022-12-09T10:13:05.985Z,3.2
2022-12-09T10:14:11.966Z,3.1
2022-12-09T10:15:21.492Z,3.1
2022-12-09T10:16:30.112Z,3.2
2022-12-09T10:17:40.025Z,2.7
2022-12-09T10:18:49.744Z,3.3
2022-12-09T10:19:58.358Z,2.8
2022-12-09T10:21:07.541Z,3.3
2022-12-09T10:22:15.468Z,3.7
2022-12-09T10:23:25.200Z,3.4
2022-12-09T10:24:39.794Z,3.3
2022-12-09T10:25:44.531Z,3.2
2022-12-09T10:26:53.914Z,3.3
2022-12-09T10:28:03.737Z,3.3
2022-12-09T10:29:12.373Z,3.9
2022-12-09T10:30:22.406Z,3.4
2022-12-09T10:31:30.739Z,3.1
2022-12-09T10:32:40.514Z,3.9
2022-12-09T10:33:50.501Z,3.5
2022-12-09T10:34:58.120Z,3.4
2022-12-09T10:36:07.702Z,3
2022-12-09T10:37:15.307Z,3.7
2022-12-09T10:38:24.849Z,3.5
2022-12-09T10:39:34.888Z,3.6
2022-12-09T10:40:42.290Z,4.3
2022-12-09T10:41:51.900Z,5.1
2022-12-09T10:43:00.722Z,4.1
2022-12-09T10:44:08.439Z,4.4
2022-12-09T10:45:18.290Z,5
2022-12-09T10:46:28.271Z,5.2
2022-12-09T10:47:36.542Z,4.5
2022-12-09T10:48:46.323Z,4.5
2022-12-09T10:49:55.313Z,4.1
2022-12-09T10:51:05.021Z,4
2022-12-09T10:52:13.265Z,4.3
2022-12-09T10:53:22.087Z,3.6
2022-12-09T10:54:31.678Z,3.7
2022-12-09T10:55:40.479Z,3.8
2022-12-09T10:56:50.009Z,3.6
2022-12-09T10:57:59.666Z,4.4
2022-12-09T10:59:07.417Z,3.5
2022-12-09T11:00:17.323Z,3.5
2022-12-09T11:01:26.254Z,4
2022-12-09T11:02:34.806Z,4.3
2022-12-09T11:03:44.352Z,4.2
2022-12-09T11:04:52.509Z,3.6
2022-12-09T11:06:00.908Z,3.9
2022-12-09T11:07:10.399Z,3.8
2022-12-09T11:08:21.018Z,3.4
2022-12-09T11:09:30.939Z,3.6
2022-12-09T11:10:39.921Z,3.6
2022-12-09T11:11:49.525Z,3.4
2022-12-09T11:12:59.099Z,3.4
2022-12-09T11:14:07.551Z,3.5
2022-12-09T11:15:16.620Z,3.1
2022-12-09T11:16:26.183Z,3.6
2022-12-09T11:17:35.908Z,3.2
2022-12-09T11:18:45.557Z,3.7
2022-12-09T11:19:54.223Z,2.8
2022-12-09T11:21:03.100Z,3.1
2022-12-09T11:22:12.874Z,3.1
2022-12-09T11:23:21.276Z,3
2022-12-09T11:24:31.046Z,3.3
2022-12-09T11:25:40.559Z,3.3
2022-12-09T11:26:48.400Z,3.3
2022-12-09T11:27:58.366Z,3.3
2022-12-09T11:29:07.648Z,4.3
2022-12-09T11:30:18.027Z,3.2
2022-12-09T11:31:29.877Z,3.5
2022-12-09T11:32:38.322Z,3.8
2022-12-09T11:33:46.606Z,3.2
2022-12-09T11:34:56.134Z,3.1
2022-12-09T11:36:04.996Z,3.8
2022-12-09T11:37:14.638Z,3.6
2022-12-09T11:38:23.403Z,3.7
2022-12-09T11:39:32.189Z,4.3
2022-12-09T11:40:41.923Z,3.9
2022-12-09T11:41:50.607Z,4
2022-12-09T11:43:00.302Z,4.8
2022-12-09T11:44:10.009Z,4.9
2022-12-09T11:45:18.711Z,4.3
2022-12-09T11:46:28.470Z,4.8
2022-12-09T11:48:21.451Z,4.2
2022-12-09T11:48:48.806Z,4.3
2022-12-09T11:49:58.635Z,4.4
2022-12-09T11:51:08.285Z,3.2
2022-12-09T11:52:17.961Z,3.2
2022-12-09T11:53:25.618Z,2.9
2022-12-09T11:54:35.360Z,3.2
2022-12-09T11:55:45.025Z,3.1
2022-12-09T11:56:52.713Z,2.7
2022-12-09T11:58:02.392Z,3.3
2022-12-09T11:59:10.068Z,2.5
2022-12-09T12:00:19.783Z,3
2022-12-09T12:01:29.486Z,2.6
2022-12-09T12:02:38.186Z,3.2
2022-12-09T12:03:46.872Z,3.5
2022-12-09T12:04:56.587Z,3.3
2022-12-09T12:06:04.263Z,3.3
2022-12-09T12:07:13.942Z,2.1
2022-12-09T12:08:22.727Z,2.8
2022-12-09T12:09:32.292Z,3
2022-12-09T12:10:41.974Z,3.6
2022-12-09T12:11:50.720Z,3.1
2022-12-09T12:13:00.407Z,3.4
2022-12-09T12:14:10.103Z,3.4
2022-12-09T12:15:19.804Z,2.6
2022-12-09T12:16:30.797Z,2.9
2022-12-09T12:17:39.243Z,3.1
2022-12-09T12:18:48.861Z,3
2022-12-09T12:19:58.556Z,2.7
2022-12-09T12:21:06.255Z,2.7
2022-12-09T12:22:14.921Z,2.9
2022-12-09T12:23:24.720Z,3.5
2022-12-09T12:24:32.406Z,2.9
2022-12-09T12:25:42.094Z,2.9
2022-12-09T12:26:51.757Z,2.7
2022-12-09T12:28:00.461Z,3.1
2022-12-09T12:29:10.145Z,3
2022-12-09T12:30:18.837Z,3.7
2022-12-09T12:31:27.575Z,3.1
2022-12-09T12:32:37.212Z,2.4
2022-12-09T12:34:23.916Z,2.8
2022-12-09T12:34:57.605Z,3.4
2022-12-09T12:36:06.304Z,3.2
2022-12-09T12:37:14.036Z,3.4
2022-12-09T12:38:23.715Z,3.1
2022-12-09T12:39:32.407Z,3.4
2022-12-09T12:40:41.136Z,3.2
2022-12-09T12:41:49.815Z,3.2
2022-12-09T12:42:58.513Z,2.3
2022-12-09T12:44:08.209Z,2.9
2022-12-09T12:45:16.881Z,3.2
2022-12-09T12:46:24.616Z,2.9
2022-12-09T12:47:34.242Z,3.5
2022-12-09T12:48:42.940Z,2.8
2022-12-09T12:49:52.598Z,2.4
2022-12-09T12:51:24.882Z,0
2022-12-09T12:53:04.202Z,2.6
2022-12-09T12:53:45.178Z,3.5
2022-12-09T12:54:53.846Z,3.5
2022-12-09T12:56:03.584Z,2.8
2022-12-09T12:57:13.261Z,2.7
2022-12-09T12:58:22.951Z,2.6
2022-12-09T12:59:32.626Z,3.2
2022-12-09T13:00:41.302Z,3.3
2022-12-09T13:01:49.009Z,3
2022-12-09T13:03:01.963Z,3
2022-12-09T13:04:09.320Z,2
2022-12-09T13:05:19.028Z,2.8
2022-12-09T13:06:28.707Z,3.8
2022-12-09T13:07:37.470Z,2.8
2022-12-09T13:08:47.135Z,3.3
2022-12-09T13:09:56.948Z,3.6
2022-12-09T13:11:05.605Z,3.5
2022-12-09T13:12:15.331Z,2.7
2022-12-09T13:13:22.981Z,2.9
2022-12-09T13:14:32.767Z,2.7
2022-12-09T13:15:42.447Z,3.2
2022-12-09T13:16:50.202Z,3.3
2022-12-09T13:17:59.858Z,3
2022-12-09T13:19:08.527Z,3.6
2022-12-09T13:20:17.226Z,4
2022-12-09T13:21:27.006Z,3.9
2022-12-09T13:22:43.907Z,4.8
2022-12-09T13:23:51.628Z,4.8
2022-12-09T13:25:01.438Z,4.2
2022-12-09T13:26:10.477Z,4.2
2022-12-09T13:27:18.173Z,4
2022-12-09T13:28:27.969Z,4.3
2022-12-09T13:29:35.877Z,4.3
2022-12-09T13:30:51.114Z,4.3
2022-12-09T13:31:56.486Z,4.1
2022-12-09T13:33:04.365Z,3.5
2022-12-09T13:34:14.195Z,3.8
2022-12-09T13:35:24.005Z,3.4
2022-12-09T13:36:36.395Z,3.7
2022-12-09T13:37:44.508Z,2.9
2022-12-09T13:38:53.269Z,3
2022-12-09T13:40:02.018Z,2.7
2022-12-09T13:41:11.943Z,2.8
2022-12-09T13:42:19.786Z,3.5
2022-12-09T13:43:29.523Z,3.8
2022-12-09T13:44:39.208Z,3.3
2022-12-09T13:45:46.968Z,3.3
2022-12-09T13:46:56.638Z,2.9
2022-12-09T13:48:05.427Z,2.8
2022-12-09T13:49:15.145Z,2.4
